Time;durP1;ratioP1;P1;durP2;ratioP2;P2;SDS_P1;SDS_P2;PMS_P1;PMS_P2;Temp;Humidity;BMP_temperature;BMP_pressure;BME280_temperature;BME280_humidity;BME280_pressure;Samples;Min_cycle;Max_cycle;Signal;HPM_P1;HPM_P2
2022/12/12 00:00:50;;;;;;;28.90;13.65;;;;;;;;;;5014990;28;20529;-91
2022/12/12 00:03:16;;;;;;;24.77;14.93;;;;;;;;;;4998558;28;20048;-93
2022/12/12 00:05:42;;;;;;;23.77;12.82;;;;;;;;;;4998691;28;20495;-92
2022/12/12 00:08:08;;;;;;;27.88;14.98;;;;;;;;;;4998469;28;20086;-94
2022/12/12 00:10:35;;;;;;;27.40;14.27;;;;;;;;;;5014794;28;20069;-90
2022/12/12 00:13:02;;;;;;;24.30;13.70;;;;;;;;;;4998465;28;20137;-88
2022/12/12 00:15:28;;;;;;;22.75;12.35;;;;;;;;;;4998034;28;20034;-90
2022/12/12 00:17:55;;;;;;;22.58;13.60;;;;;;;;;;5014810;28;20398;-90
2022/12/12 00:20:21;;;;;;;28.33;13.65;;;;;;;;;;5013865;28;20209;-85
2022/12/12 00:22:47;;;;;;;28.40;15.07;;;;;;;;;;4997383;28;20042;-86
2022/12/12 00:25:13;;;;;;;28.08;13.82;;;;;;;;;;4980052;28;20058;-90
2022/12/12 00:27:39;;;;;;;24.55;13.32;;;;;;;;;;4997503;28;20046;-86
2022/12/12 00:30:06;;;;;;;26.58;14.13;;;;;;;;;;5013116;28;20637;-88
2022/12/12 00:32:32;;;;;;;27.17;14.45;;;;;;;;;;4997077;28;20089;-94
2022/12/12 00:34:58;;;;;;;25.65;14.02;;;;;;;;;;5013515;28;20057;-85
2022/12/12 00:37:24;;;;;;;26.40;14.88;;;;;;;;;;4996885;28;20048;-87
2022/12/12 00:39:50;;;;;;;26.55;14.27;;;;;;;;;;4996996;28;20539;-84
2022/12/12 00:42:16;;;;;;;28.63;14.18;;;;;;;;;;4980998;28;20054;-88
2022/12/12 00:44:42;;;;;;;22.88;13.25;;;;;;;;;;4996848;28;20056;-87
2022/12/12 00:47:08;;;;;;;24.55;14.77;;;;;;;;;;5013322;28;20124;-86
2022/12/12 00:49:34;;;;;;;25.85;15.43;;;;;;;;;;4980569;28;20128;-85
2022/12/12 00:52:01;;;;;;;23.05;13.80;;;;;;;;;;4980848;28;20049;-85
2022/12/12 00:54:27;;;;;;;25.48;13.70;;;;;;;;;;4996467;28;20100;-85
2022/12/12 00:56:53;;;;;;;23.75;13.82;;;;;;;;;;4997589;28;20056;-94
2022/12/12 00:59:19;;;;;;;25.33;12.50;;;;;;;;;;5013793;28;20041;-92
2022/12/12 01:01:45;;;;;;;24.00;13.68;;;;;;;;;;5013792;28;20037;-93
2022/12/12 01:04:11;;;;;;;25.73;13.20;;;;;;;;;;5014218;28;20068;-94
2022/12/12 01:06:37;;;;;;;24.77;13.10;;;;;;;;;;5013766;28;20077;-95
2022/12/12 01:09:03;;;;;;;24.38;14.05;;;;;;;;;;4981258;28;20049;-94
2022/12/12 01:11:30;;;;;;;25.73;13.75;;;;;;;;;;4981013;28;20703;-92
2022/12/12 01:13:56;;;;;;;25.05;13.90;;;;;;;;;;5013819;28;20117;-94
2022/12/12 01:16:23;;;;;;;25.23;12.45;;;;;;;;;;5014099;28;20504;-94
2022/12/12 01:18:49;;;;;;;24.80;13.70;;;;;;;;;;4997796;28;20049;-95
2022/12/12 01:21:17;;;;;;;25.70;14.70;;;;;;;;;;4997269;28;20084;-87
2022/12/12 01:23:43;;;;;;;27.35;13.57;;;;;;;;;;5012707;28;20046;-87
2022/12/12 01:26:17;;;;;;;25.23;14.27;;;;;;;;;;4996492;28;20100;-87
2022/12/12 01:28:44;;;;;;;30.35;15.25;;;;;;;;;;4996194;28;20107;-90
2022/12/12 01:31:11;;;;;;;22.77;13.13;;;;;;;;;;4996180;28;20080;-87
2022/12/12 01:33:37;;;;;;;29.63;14.93;;;;;;;;;;4996342;28;20521;-91
2022/12/12 01:36:03;;;;;;;28.58;14.95;;;;;;;;;;4996005;28;20108;-93
2022/12/12 01:38:29;;;;;;;27.45;13.80;;;;;;;;;;4996539;28;20487;-92
2022/12/12 01:40:55;;;;;;;24.20;14.02;;;;;;;;;;5012450;28;20042;-90
2022/12/12 01:43:22;;;;;;;29.65;12.93;;;;;;;;;;4980479;28;20050;-86
2022/12/12 01:46:01;;;;;;;24.65;14.23;;;;;;;;;;5012867;28;20038;-90
2022/12/12 01:48:45;;;;;;;22.92;13.40;;;;;;;;;;5012394;28;20053;-88
2022/12/12 01:51:14;;;;;;;23.67;12.85;;;;;;;;;;4995947;28;20050;-89
2022/12/12 01:53:40;;;;;;;24.73;13.98;;;;;;;;;;4996084;28;20042;-87
2022/12/12 01:56:11;;;;;;;22.17;12.65;;;;;;;;;;4980253;28;20049;-87
2022/12/12 01:58:38;;;;;;;21.95;13.15;;;;;;;;;;5012324;28;20085;-89
2022/12/12 02:01:04;;;;;;;28.75;14.80;;;;;;;;;;5012087;28;20042;-88
2022/12/12 02:03:30;;;;;;;24.50;13.70;;;;;;;;;;4995979;28;20136;-91
2022/12/12 02:05:58;;;;;;;25.15;13.93;;;;;;;;;;5012079;28;20042;-89
2022/12/12 02:08:25;;;;;;;21.55;12.52;;;;;;;;;;5012061;28;20045;-87
2022/12/12 02:10:51;;;;;;;23.67;12.73;;;;;;;;;;4995552;28;20192;-84
2022/12/12 02:13:22;;;;;;;25.58;13.90;;;;;;;;;;5011883;28;20184;-86
2022/12/12 02:16:08;;;;;;;26.27;14.02;;;;;;;;;;4995696;28;20513;-91
2022/12/12 02:18:53;;;;;;;21.80;13.35;;;;;;;;;;4972406;28;20054;-88
2022/12/12 02:21:23;;;;;;;25.63;13.02;;;;;;;;;;4995430;28;20046;-87
2022/12/12 02:24:07;;;;;;;26.83;13.30;;;;;;;;;;4995363;28;20531;-88
2022/12/12 02:26:52;;;;;;;25.77;12.57;;;;;;;;;;4995358;28;20053;-89
2022/12/12 02:29:18;;;;;;;25.85;14.60;;;;;;;;;;4995781;28;20095;-91
2022/12/12 02:31:50;;;;;;;24.30;13.13;;;;;;;;;;4995622;28;20037;-90
2022/12/12 02:34:16;;;;;;;21.48;13.13;;;;;;;;;;4995698;28;20494;-85
2022/12/12 02:36:49;;;;;;;28.35;14.10;;;;;;;;;;4995347;28;20052;-88
2022/12/12 02:39:21;;;;;;;24.77;12.48;;;;;;;;;;5011903;28;20127;-90
2022/12/12 02:41:51;;;;;;;28.67;14.93;;;;;;;;;;4995236;28;20077;-85
2022/12/12 02:44:25;;;;;;;24.90;13.13;;;;;;;;;;4995467;28;20052;-88
2022/12/12 02:47:14;;;;;;;23.63;13.73;;;;;;;;;;4995236;28;20108;-92
2022/12/12 02:49:55;;;;;;;25.23;12.77;;;;;;;;;;4991692;28;20148;-84
2022/12/12 02:52:21;;;;;;;25.88;13.52;;;;;;;;;;4999325;28;20050;-91
2022/12/12 02:54:49;;;;;;;26.88;13.55;;;;;;;;;;4999409;28;20424;-89
2022/12/12 02:57:20;;;;;;;25.02;12.70;;;;;;;;;;4999423;28;20132;-91
2022/12/12 02:59:55;;;;;;;24.50;12.57;;;;;;;;;;5015724;28;20041;-85
2022/12/12 03:02:44;;;;;;;25.13;11.98;;;;;;;;;;5015807;28;20053;-86
2022/12/12 03:08:04;;;;;;;25.92;14.38;;;;;;;;;;5015659;28;20038;-94
2022/12/12 03:10:56;;;;;;;24.45;13.90;;;;;;;;;;5015621;28;20046;-91
2022/12/12 03:13:31;;;;;;;22.80;12.82;;;;;;;;;;4996265;28;20060;-88
2022/12/12 03:16:13;;;;;;;29.40;12.65;;;;;;;;;;4998273;28;20486;-90
2022/12/12 03:18:51;;;;;;;22.05;13.10;;;;;;;;;;4998348;28;20038;-89
2022/12/12 03:21:21;;;;;;;21.73;12.63;;;;;;;;;;4998629;28;20045;-88
2022/12/12 03:23:49;;;;;;;20.58;12.13;;;;;;;;;;4998639;28;20556;-90
2022/12/12 03:26:19;;;;;;;25.75;12.48;;;;;;;;;;5015037;28;20045;-88
2022/12/12 03:28:47;;;;;;;19.75;11.57;;;;;;;;;;5014980;28;20038;-90
2022/12/12 03:31:14;;;;;;;21.13;11.38;;;;;;;;;;5014638;28;20131;-91
2022/12/12 03:33:45;;;;;;;24.00;12.52;;;;;;;;;;4982310;28;20058;-89
2022/12/12 03:36:11;;;;;;;23.83;12.40;;;;;;;;;;4998695;28;20045;-92
2022/12/12 03:38:43;;;;;;;24.40;11.75;;;;;;;;;;4998327;28;20046;-91
2022/12/12 03:41:13;;;;;;;22.08;12.60;;;;;;;;;;4998601;28;20052;-91
2022/12/12 03:43:43;;;;;;;22.05;11.85;;;;;;;;;;4997935;28;20084;-91
2022/12/12 03:46:20;;;;;;;23.25;12.30;;;;;;;;;;5014312;28;20042;-92
2022/12/12 03:48:52;;;;;;;25.88;12.80;;;;;;;;;;5014620;28;20053;-91
2022/12/12 03:51:25;;;;;;;23.35;12.20;;;;;;;;;;4998314;28;20038;-88
2022/12/12 03:53:58;;;;;;;22.07;11.17;;;;;;;;;;4998138;28;20045;-90
2022/12/12 03:56:29;;;;;;;23.43;12.87;;;;;;;;;;5014742;28;20050;-91
2022/12/12 03:59:06;;;;;;;20.33;11.02;;;;;;;;;;4998275;28;20045;-88
2022/12/12 04:01:39;;;;;;;22.15;11.98;;;;;;;;;;4998368;28;20145;-89
2022/12/12 04:04:13;;;;;;;28.85;13.48;;;;;;;;;;4998315;28;20056;-92
2022/12/12 04:06:42;;;;;;;22.17;11.98;;;;;;;;;;4998091;28;20053;-91
2022/12/12 04:15:05;;;;;;;19.23;11.20;;;;;;;;;;5013952;28;20108;-85
2022/12/12 04:17:51;;;;;;;20.65;11.40;;;;;;;;;;4998018;28;20041;-84
2022/12/12 04:23:15;;;;;;;24.02;11.77;;;;;;;;;;5014199;28;20054;-92
2022/12/12 04:28:43;;;;;;;20.88;11.38;;;;;;;;;;5013986;28;20050;-92
2022/12/12 04:31:11;;;;;;;21.55;11.73;;;;;;;;;;4997982;28;20040;-92
2022/12/12 04:33:46;;;;;;;19.70;10.95;;;;;;;;;;5013897;28;20089;-92
2022/12/12 04:36:14;;;;;;;24.30;11.48;;;;;;;;;;4998111;28;20092;-92
2022/12/12 04:38:41;;;;;;;23.08;12.95;;;;;;;;;;5014267;28;20056;-88
2022/12/12 04:41:09;;;;;;;20.42;12.00;;;;;;;;;;5013296;28;20038;-92
2022/12/12 04:43:38;;;;;;;21.17;12.00;;;;;;;;;;5013511;28;20041;-90
2022/12/12 04:46:09;;;;;;;23.40;12.07;;;;;;;;;;4996829;28;20408;-90
2022/12/12 04:48:38;;;;;;;26.15;14.40;;;;;;;;;;5013195;28;20045;-86
2022/12/12 04:51:05;;;;;;;30.73;15.32;;;;;;;;;;4997104;28;20498;-86
2022/12/12 04:53:37;;;;;;;24.58;12.77;;;;;;;;;;5013031;28;20380;-89
2022/12/12 04:56:07;;;;;;;25.25;12.10;;;;;;;;;;4996783;28;20073;-84
2022/12/12 04:58:33;;;;;;;21.40;11.13;;;;;;;;;;4996666;28;20049;-85
2022/12/12 05:01:01;;;;;;;22.85;11.63;;;;;;;;;;5013097;28;20057;-90
2022/12/12 05:03:48;;;;;;;23.40;13.25;;;;;;;;;;4996887;28;20088;-86
2022/12/12 05:06:16;;;;;;;22.35;12.13;;;;;;;;;;4996390;28;20399;-91
2022/12/12 05:08:44;;;;;;;19.30;12.05;;;;;;;;;;5012918;28;20084;-88
2022/12/12 05:11:11;;;;;;;20.88;11.60;;;;;;;;;;4996019;28;20046;-89
2022/12/12 05:13:38;;;;;;;23.50;12.13;;;;;;;;;;4997291;28;20176;-88
2022/12/12 05:16:09;;;;;;;20.88;11.63;;;;;;;;;;4996332;28;20137;-91
2022/12/12 05:18:35;;;;;;;23.23;13.35;;;;;;;;;;5012891;28;20052;-87
2022/12/12 05:21:01;;;;;;;22.85;11.88;;;;;;;;;;5012713;28;20041;-87
2022/12/12 05:23:27;;;;;;;20.30;11.63;;;;;;;;;;4996829;28;20064;-90
2022/12/12 05:25:53;;;;;;;18.33;10.90;;;;;;;;;;4980366;28;20394;-85
2022/12/12 05:28:19;;;;;;;19.17;10.73;;;;;;;;;;4980107;28;20046;-90
2022/12/12 05:30:45;;;;;;;17.08;9.68;;;;;;;;;;4996584;28;20513;-88
2022/12/12 05:33:11;;;;;;;19.67;11.95;;;;;;;;;;4995837;28;20506;-91
2022/12/12 05:35:38;;;;;;;24.08;12.18;;;;;;;;;;4996583;28;20565;-86
2022/12/12 05:38:04;;;;;;;18.23;10.70;;;;;;;;;;4980374;28;20060;-87
2022/12/12 05:40:30;;;;;;;20.83;10.70;;;;;;;;;;4996203;28;20458;-90
2022/12/12 05:42:56;;;;;;;19.40;10.70;;;;;;;;;;5012734;28;20052;-88
2022/12/12 05:45:22;;;;;;;20.48;11.68;;;;;;;;;;4996694;28;20041;-85
2022/12/12 05:47:48;;;;;;;22.58;11.43;;;;;;;;;;5013977;28;20049;-88
2022/12/12 05:50:14;;;;;;;18.08;11.40;;;;;;;;;;4997235;28;20046;-85
2022/12/12 05:52:40;;;;;;;20.88;10.75;;;;;;;;;;4997056;28;20049;-86
2022/12/12 05:55:07;;;;;;;20.60;11.25;;;;;;;;;;5012896;28;20132;-91
2022/12/12 05:57:33;;;;;;;19.73;11.55;;;;;;;;;;4996984;28;20085;-91
2022/12/12 05:59:59;;;;;;;22.77;11.48;;;;;;;;;;4980836;28;20046;-91
2022/12/12 06:02:25;;;;;;;18.05;9.77;;;;;;;;;;4996543;28;20490;-90
2022/12/12 06:04:51;;;;;;;18.95;11.50;;;;;;;;;;4996524;28;20491;-90
2022/12/12 06:07:17;;;;;;;20.73;12.25;;;;;;;;;;4996524;28;20042;-91
2022/12/12 06:09:44;;;;;;;19.60;10.70;;;;;;;;;;4980575;28;20045;-89
2022/12/12 06:12:10;;;;;;;20.52;11.63;;;;;;;;;;4980161;28;20133;-91
2022/12/12 06:14:36;;;;;;;20.85;11.50;;;;;;;;;;4980132;28;21279;-88
2022/12/12 06:17:02;;;;;;;19.00;10.73;;;;;;;;;;4980752;28;20108;-91
2022/12/12 06:19:28;;;;;;;20.77;11.82;;;;;;;;;;4996435;28;20041;-91
2022/12/12 06:21:54;;;;;;;23.70;12.18;;;;;;;;;;5012350;28;20050;-91
2022/12/12 06:24:23;;;;;;;20.38;11.30;;;;;;;;;;5012510;28;20085;-91
2022/12/12 06:26:50;;;;;;;21.40;11.82;;;;;;;;;;4995942;28;20046;-92
2022/12/12 06:29:16;;;;;;;22.90;12.57;;;;;;;;;;4995925;28;20046;-91
2022/12/12 06:31:42;;;;;;;25.65;13.10;;;;;;;;;;5011475;28;20049;-91
2022/12/12 06:34:09;;;;;;;28.25;11.93;;;;;;;;;;4995473;28;20049;-91
2022/12/12 06:36:36;;;;;;;19.65;10.45;;;;;;;;;;4996172;28;20045;-92
2022/12/12 06:39:02;;;;;;;19.30;10.98;;;;;;;;;;4979693;28;20514;-89
2022/12/12 06:41:29;;;;;;;23.85;12.18;;;;;;;;;;4995549;28;20046;-91
2022/12/12 06:43:55;;;;;;;20.95;11.18;;;;;;;;;;4995224;28;20049;-91
2022/12/12 06:46:24;;;;;;;19.13;10.68;;;;;;;;;;5011308;28;20553;-91
2022/12/12 06:48:51;;;;;;;19.10;10.90;;;;;;;;;;4995352;28;20053;-91
2022/12/12 06:51:19;;;;;;;19.55;11.75;;;;;;;;;;4994924;28;20510;-92
2022/12/12 06:53:45;;;;;;;22.02;11.95;;;;;;;;;;5011782;28;20072;-89
2022/12/12 06:56:22;;;;;;;21.05;11.52;;;;;;;;;;5011461;28;20046;-90
2022/12/12 06:58:49;;;;;;;19.38;11.05;;;;;;;;;;4995413;28;20411;-90
2022/12/12 07:01:17;;;;;;;22.10;12.00;;;;;;;;;;4995347;28;20040;-91
2022/12/12 07:03:44;;;;;;;20.65;10.98;;;;;;;;;;4995505;28;20058;-92
2022/12/12 07:06:10;;;;;;;24.20;11.77;;;;;;;;;;5011385;28;20073;-85
2022/12/12 07:08:36;;;;;;;22.65;13.30;;;;;;;;;;4995210;28;20081;-91
2022/12/12 07:11:03;;;;;;;19.85;11.07;;;;;;;;;;5011650;28;20494;-90
2022/12/12 07:13:30;;;;;;;21.40;11.73;;;;;;;;;;4994883;28;20137;-91
2022/12/12 07:15:56;;;;;;;28.00;12.18;;;;;;;;;;4978670;28;20045;-90
2022/12/12 07:18:22;;;;;;;22.73;11.63;;;;;;;;;;4979116;28;20089;-90
2022/12/12 07:20:48;;;;;;;20.23;12.65;;;;;;;;;;4995816;28;20041;-92
2022/12/12 07:23:14;;;;;;;20.30;11.45;;;;;;;;;;4979337;28;20046;-91
2022/12/12 07:25:41;;;;;;;22.60;11.15;;;;;;;;;;4995544;28;20034;-91
2022/12/12 07:28:08;;;;;;;20.20;11.60;;;;;;;;;;4995330;28;20493;-89
2022/12/12 07:30:37;;;;;;;19.73;10.48;;;;;;;;;;4995527;28;20049;-92
2022/12/12 07:33:03;;;;;;;28.88;14.45;;;;;;;;;;5011391;28;20473;-92
2022/12/12 07:35:29;;;;;;;20.75;12.18;;;;;;;;;;4999142;28;20046;-89
2022/12/12 07:37:55;;;;;;;22.17;12.20;;;;;;;;;;5014997;28;20045;-91
2022/12/12 07:40:22;;;;;;;24.52;11.05;;;;;;;;;;4998597;28;20111;-90
2022/12/12 07:42:48;;;;;;;22.42;12.07;;;;;;;;;;4982514;28;20478;-90
2022/12/12 07:45:14;;;;;;;23.05;11.50;;;;;;;;;;5014450;28;20046;-88
2022/12/12 07:47:40;;;;;;;21.42;12.35;;;;;;;;;;4982226;28;20410;-90
2022/12/12 07:50:07;;;;;;;26.42;12.43;;;;;;;;;;4998268;28;20395;-84
2022/12/12 07:52:33;;;;;;;22.40;13.55;;;;;;;;;;4998049;28;20038;-84
2022/12/12 07:55:01;;;;;;;24.42;13.70;;;;;;;;;;4981770;28;20546;-84
2022/12/12 07:57:27;;;;;;;18.83;11.60;;;;;;;;;;5014539;28;20506;-91
2022/12/12 07:59:53;;;;;;;24.73;13.00;;;;;;;;;;4998077;28;20099;-87
2022/12/12 08:02:19;;;;;;;20.60;12.23;;;;;;;;;;5014142;28;20196;-89
2022/12/12 08:04:45;;;;;;;25.42;13.10;;;;;;;;;;4997672;28;20050;-91
2022/12/12 08:07:11;;;;;;;23.85;13.68;;;;;;;;;;5014060;28;20636;-89
2022/12/12 08:09:38;;;;;;;27.92;14.25;;;;;;;;;;5014148;28;20498;-90
2022/12/12 08:12:04;;;;;;;23.55;13.32;;;;;;;;;;5014181;28;20045;-86
2022/12/12 08:14:31;;;;;;;25.63;13.48;;;;;;;;;;4997510;28;20578;-84
2022/12/12 08:16:57;;;;;;;22.20;13.15;;;;;;;;;;4997831;28;20042;-85
2022/12/12 08:19:23;;;;;;;26.95;13.30;;;;;;;;;;4998170;28;20422;-89
2022/12/12 08:21:49;;;;;;;23.45;12.25;;;;;;;;;;4997972;28;20053;-91
2022/12/12 08:24:15;;;;;;;24.83;13.95;;;;;;;;;;5014152;28;20132;-89
2022/12/12 08:26:42;;;;;;;22.90;12.07;;;;;;;;;;4997558;28;20038;-85
2022/12/12 08:29:08;;;;;;;28.00;14.68;;;;;;;;;;4981197;28;20049;-91
2022/12/12 08:31:34;;;;;;;25.70;12.98;;;;;;;;;;4981466;28;20045;-89
2022/12/12 08:34:00;;;;;;;17.88;11.63;;;;;;;;;;5013583;28;20517;-91
2022/12/12 08:36:30;;;;;;;24.33;13.45;;;;;;;;;;4981851;28;20046;-88
2022/12/12 08:39:07;;;;;;;21.65;13.68;;;;;;;;;;5013946;28;20046;-90
2022/12/12 08:41:34;;;;;;;27.48;12.30;;;;;;;;;;4997248;28;20053;-87
2022/12/12 08:44:00;;;;;;;23.85;12.15;;;;;;;;;;4981678;28;20133;-88
2022/12/12 08:46:26;;;;;;;23.95;12.55;;;;;;;;;;5012911;28;20132;-90
2022/12/12 08:48:52;;;;;;;25.15;12.75;;;;;;;;;;5013502;28;20068;-87
2022/12/12 08:51:18;;;;;;;24.38;12.38;;;;;;;;;;4997112;28;20081;-91
2022/12/12 08:53:48;;;;;;;27.02;11.73;;;;;;;;;;4996871;28;20504;-84
2022/12/12 08:56:14;;;;;;;24.88;13.00;;;;;;;;;;5013715;28;20034;-87
2022/12/12 08:58:41;;;;;;;21.00;11.80;;;;;;;;;;4997622;28;20056;-87
2022/12/12 09:01:11;;;;;;;21.08;12.18;;;;;;;;;;5014277;28;20525;-89
2022/12/12 09:03:37;;;;;;;23.00;12.40;;;;;;;;;;4997971;28;20439;-88
2022/12/12 09:06:05;;;;;;;23.00;13.63;;;;;;;;;;4998326;28;20053;-84
2022/12/12 09:08:32;;;;;;;21.30;12.15;;;;;;;;;;5013937;28;20073;-88
2022/12/12 09:10:59;;;;;;;28.67;12.52;;;;;;;;;;5014496;28;20434;-89
2022/12/12 09:13:25;;;;;;;22.90;12.82;;;;;;;;;;5014356;28;20386;-88
2022/12/12 09:15:52;;;;;;;21.35;12.15;;;;;;;;;;4997188;28;20053;-88
2022/12/12 09:18:21;;;;;;;22.40;12.15;;;;;;;;;;4997151;28;20052;-85
2022/12/12 09:20:48;;;;;;;23.95;12.45;;;;;;;;;;4997179;28;20482;-89
2022/12/12 09:23:15;;;;;;;24.40;12.57;;;;;;;;;;5013016;28;20045;-85
2022/12/12 09:25:41;;;;;;;24.98;12.63;;;;;;;;;;4996863;28;20057;-86
2022/12/12 09:28:07;;;;;;;27.40;14.65;;;;;;;;;;4996566;28;20061;-87
2022/12/12 09:30:33;;;;;;;30.30;14.65;;;;;;;;;;4996896;28;20053;-90
2022/12/12 09:33:00;;;;;;;24.58;12.75;;;;;;;;;;4980979;28;20190;-88
2022/12/12 09:35:26;;;;;;;23.45;12.48;;;;;;;;;;4980878;28;20050;-87
2022/12/12 09:37:53;;;;;;;24.63;14.30;;;;;;;;;;5013573;28;20104;-88
2022/12/12 09:40:20;;;;;;;25.38;14.48;;;;;;;;;;5013426;28;20042;-85
2022/12/12 09:42:48;;;;;;;22.17;13.35;;;;;;;;;;4996928;28;20053;-88
2022/12/12 09:45:15;;;;;;;22.20;11.95;;;;;;;;;;4997255;28;20038;-89
2022/12/12 09:47:52;;;;;;;26.13;14.68;;;;;;;;;;4996941;28;20050;-87
2022/12/12 09:50:18;;;;;;;27.27;13.32;;;;;;;;;;4997171;28;20052;-89
2022/12/12 09:52:45;;;;;;;23.20;13.00;;;;;;;;;;4998029;28;20045;-91
2022/12/12 09:55:31;;;;;;;22.17;13.63;;;;;;;;;;4998076;28;20071;-87
2022/12/12 09:58:16;;;;;;;23.80;12.77;;;;;;;;;;4968353;28;20176;-87
2022/12/12 10:00:46;;;;;;;24.63;12.10;;;;;;;;;;4997631;28;20092;-88
2022/12/12 10:03:12;;;;;;;21.00;12.30;;;;;;;;;;4997693;28;20042;-91
2022/12/12 10:06:10;;;;;;;20.15;11.90;;;0.80;99.90;;;;;;4997771;28;20053;-92
2022/12/12 10:08:39;;;;;;;21.27;11.93;;;;;;;;;;4997598;28;20085;-89
2022/12/12 10:11:48;;;;;;;26.33;13.45;;;;;;;;;;4997967;28;20064;-91
2022/12/12 10:13:53;;;;;;;21.15;12.45;;;;;;;;;;5014176;28;20564;-90
2022/12/12 10:16:19;;;;;;;25.25;12.88;;;;;;;;;;4981346;28;20052;-88
2022/12/12 10:18:47;;;;;;;20.42;11.40;;;;;;;;;;4997592;28;20125;-88
2022/12/12 10:21:17;;;;;;;19.70;10.88;;;;;;;;;;5013747;28;20054;-92
2022/12/12 10:23:45;;;;;;;21.63;11.13;;;;;;;;;;4997214;28;20042;-91
2022/12/12 10:26:31;;;;;;;19.33;11.48;;;;;;;;;;4997302;28;20045;-90
2022/12/12 10:29:11;;;;;;;20.27;12.40;;;;;;;;;;5013684;28;20049;-91
2022/12/12 10:31:37;;;;;;;21.95;12.13;;;;;;;;;;4997790;28;20033;-89
2022/12/12 10:34:12;;;;;;;20.30;11.63;;;;;;;;;;4996955;28;20046;-89
2022/12/12 10:37:11;;;;;;;24.20;12.30;;;;;;;;;;4997084;28;20093;-89
2022/12/12 10:39:53;;;;;;;17.48;11.43;;;;;;;;;;4964962;28;20060;-90
2022/12/12 10:42:23;;;;;;;19.17;10.93;;;;;;;;;;4997057;28;20052;-90
2022/12/12 10:45:13;;;;;;;22.23;11.30;;;;;;;;;;4996656;28;20141;-89
2022/12/12 10:47:39;;;;;;;21.15;11.73;;;;;;;;;;4970162;28;20141;-91
2022/12/12 10:50:24;;;;;;;19.23;10.30;;;;;;;;;;5012972;28;20045;-90
2022/12/12 10:52:50;;;;;;;21.45;11.45;;;;;;;;;;4996983;28;20046;-90
2022/12/12 10:55:18;;;;;;;14.85;9.75;;;;;;;;;;4997201;28;20068;-90
2022/12/12 10:57:44;;;;;;;20.98;10.98;;;;;;;;;;4997001;28;20046;-90
2022/12/12 11:00:25;;;;;;;19.30;11.02;;;;;;;;;;5013214;28;20511;-91
2022/12/12 11:02:54;;;;;;;22.63;12.13;;;;;;;;;;4997343;28;20046;-90
2022/12/12 11:05:22;;;;;;;20.25;10.65;;;;;;;;;;4996680;28;20041;-90
2022/12/12 11:07:51;;;;;;;18.77;11.35;;;;;;;;;;4996760;28;20046;-92
2022/12/12 11:10:31;;;;;;;18.02;10.75;;;;;;;;;;5000273;28;20042;-91
2022/12/12 11:13:00;;;;;;;22.58;13.10;;;;;;;;;;5000621;28;20141;-91
2022/12/12 11:15:40;;;;;;;20.33;11.82;;;;;;;;;;5016414;28;20046;-90
2022/12/12 11:18:11;;;;;;;23.05;12.70;;;;;;;;;;5000769;28;20045;-92
2022/12/12 11:20:42;;;;;;;20.52;11.38;;;;;;;;;;5001120;28;20054;-91
2022/12/12 11:23:15;;;;;;;15.93;10.18;;;;;;;;;;5000736;28;20037;-90
2022/12/12 11:25:42;;;;;;;22.30;12.15;;;;;;;;;;5000721;28;20046;-89
2022/12/12 11:28:14;;;;;;;21.00;11.77;;;;;;;;;;4984129;28;20045;-90
2022/12/12 11:30:42;;;;;;;19.58;10.73;;;;;;;;;;5000304;28;20038;-89
2022/12/12 11:33:17;;;;;;;20.15;11.30;;;;;;;;;;5000033;28;20057;-90
2022/12/12 11:35:46;;;;;;;20.58;11.50;;;;;;;;;;5000474;28;20037;-89
2022/12/12 11:38:16;;;;;;;19.45;10.80;;;;;;;;;;5000332;28;20151;-91
2022/12/12 11:40:43;;;;;;;17.80;10.85;;;;;;;;;;5000166;28;20045;-91
2022/12/12 11:43:24;;;;;;;20.13;11.63;;;;;;;;;;4999877;28;20046;-90
2022/12/12 11:46:06;;;;;;;17.08;11.27;;;;;;;;;;4999691;28;20502;-90
2022/12/12 11:48:38;;;;;;;21.45;11.73;;;;;;;;;;5015935;28;20046;-91
2022/12/12 11:51:04;;;;;;;19.73;11.35;;;;;;;;;;5000294;28;20426;-91
2022/12/12 11:53:32;;;;;;;21.52;11.90;;;;;;;;;;5000081;28;20049;-89
2022/12/12 11:56:05;;;;;;;21.55;12.68;;;;;;;;;;5017096;28;20037;-89
2022/12/12 11:58:34;;;;;;;19.95;11.00;;;;;;;;;;5002343;28;20449;-91
2022/12/12 12:01:03;;;;;;;21.92;12.32;;;;;;;;;;5001442;28;20070;-91
2022/12/12 12:03:35;;;;;;;21.20;12.00;;;;;;;;;;5001562;28;20045;-90
2022/12/12 12:06:15;;;;;;;21.23;12.50;;;;;;;;;;5000336;28;20037;-91
2022/12/12 12:09:01;;;;;;;19.02;11.98;;;;;;;;;;5016251;28;20069;-90
2022/12/12 12:11:31;;;;;;;19.60;11.73;;;;;;;;;;5000127;28;20042;-90
2022/12/12 12:14:13;;;;;;;20.10;11.32;;;;;;;;;;5000071;28;20415;-90
2022/12/12 12:16:58;;;;;;;19.80;11.55;;;;;;;;;;4999647;28;20045;-91
2022/12/12 12:19:24;;;;;;;19.38;10.95;;;;;;;;;;4999018;28;20050;-92
2022/12/12 12:21:59;;;;;;;19.10;11.73;;;;;;;;;;4998889;28;20038;-91
2022/12/12 12:24:36;;;;;;;19.00;12.40;;;;;;;;;;4999949;28;20148;-92
2022/12/12 12:27:05;;;;;;;22.25;12.10;;;;;;;;;;5017225;28;20093;-91
2022/12/12 12:29:53;;;;;;;19.67;13.55;;;1.80;99.90;;;;;;4999834;28;20053;-91
2022/12/12 12:32:19;;;;;;;25.55;13.63;;;;;;;;;;5015761;28;20515;-90
2022/12/12 12:34:55;;;;;;;19.30;12.18;;;;;;;;;;4999700;28;20046;-90
2022/12/12 12:37:27;;;;;;;18.08;11.70;;;;;;;;;;4999580;28;20483;-90
2022/12/12 12:40:01;;;;;;;19.65;11.50;;;;;;;;;;4999416;28;20119;-91
2022/12/12 12:42:42;;;;;;;21.83;12.52;;;;;;;;;;4999481;28;20128;-91
2022/12/12 12:45:15;;;;;;;21.95;11.38;;;;;;;;;;5015581;28;20099;-90
2022/12/12 12:47:41;;;;;;;14.70;10.13;;;;;;;;;;5015680;28;20038;-90
2022/12/12 12:50:19;;;;;;;19.60;11.05;;;;;;;;;;4999043;28;20049;-90
2022/12/12 12:52:53;;;;;;;17.73;11.43;;;;;;;;;;4998537;28;20176;-90
2022/12/12 12:55:21;;;;;;;22.17;12.60;;;;;;;;;;4998556;28;20042;-89
2022/12/12 12:57:48;;;;;;;24.15;12.13;;;;;;;;;;4998598;28;20129;-89
2022/12/12 13:00:16;;;;;;;21.70;12.32;;;;;;;;;;4998826;28;20053;-91
2022/12/12 13:03:00;;;;;;;19.67;12.73;;;;;;;;;;5014744;28;20054;-92
2022/12/12 13:05:26;;;;;;;21.42;12.23;;;;;;;;;;5014727;28;20046;-90
2022/12/12 13:07:57;;;;;;;20.23;13.23;;;;;;;;;;5014962;28;20052;-91
2022/12/12 13:10:24;;;;;;;22.25;11.80;;;;;;;;;;4998624;28;20521;-91
2022/12/12 13:13:11;;;;;;;21.23;11.68;;;;;;;;;;5014359;28;20064;-92
2022/12/12 13:15:50;;;;;;;22.58;13.32;;;;;;;;;;5013978;28;20050;-91
2022/12/12 13:18:19;;;;;;;24.50;12.10;;;;;;;;;;4997691;28;20060;-92
2022/12/12 13:20:49;;;;;;;20.48;12.38;;;;;;;;;;4997116;28;20046;-92
2022/12/12 13:23:22;;;;;;;27.70;12.35;;;;;;;;;;4996955;28;20077;-91
2022/12/12 13:25:48;;;;;;;18.75;11.73;;;;;;;;;;4997646;28;20049;-91
2022/12/12 13:28:17;;;;;;;19.58;11.48;;;;;;;;;;4996870;28;20041;-91
2022/12/12 13:30:54;;;;;;;20.10;11.35;;;;;;;;;;4996524;28;20042;-90
2022/12/12 13:33:34;;;;;;;19.48;11.60;;;;;;;;;;4996545;28;20522;-91
2022/12/12 13:36:07;;;;;;;22.52;11.88;;;;;;;;;;5013586;28;20081;-91
2022/12/12 13:38:34;;;;;;;18.80;11.17;;;;;;;;;;4996989;28;20052;-92
2022/12/12 13:41:06;;;;;;;15.40;10.38;;;;;;;;;;4980907;28;20529;-90
2022/12/12 13:43:39;;;;;;;19.65;10.88;;;;;;;;;;4996940;28;20073;-93
2022/12/12 13:46:20;;;;;;;19.57;11.00;;;;;;;;;;4996745;28;20046;-92
2022/12/12 13:48:59;;;;;;;19.15;11.88;;;;;;;;;;4996929;28;20053;-92
2022/12/12 13:51:31;;;;;;;19.08;11.77;;;;;;;;;;4997009;28;20042;-92
2022/12/12 13:54:06;;;;;;;18.55;10.90;;;;;;;;;;4996567;28;20104;-94
2022/12/12 13:56:33;;;;;;;20.05;11.48;;;;;;;;;;5013319;28;20053;-92
2022/12/12 13:58:59;;;;;;;19.83;10.68;;;;;;;;;;4996455;28;20046;-92
2022/12/12 14:01:28;;;;;;;19.38;11.10;;;;;;;;;;5013163;28;20384;-91
2022/12/12 14:03:54;;;;;;;15.15;10.30;;;;;;;;;;4996935;28;20045;-92
2022/12/12 14:06:21;;;;;;;16.35;11.48;;;;;;;;;;4996598;28;20042;-93
2022/12/12 14:08:48;;;;;;;18.85;11.30;;;;;;;;;;4996466;28;20057;-90
2022/12/12 14:11:25;;;;;;;17.48;10.32;;;;;;;;;;4996304;28;20229;-90
2022/12/12 14:13:59;;;;;;;18.63;11.70;;;;;;;;;;5013426;28;20041;-90
2022/12/12 14:16:26;;;;;;;18.65;11.82;;;;;;;;;;4995809;28;20054;-90
2022/12/12 14:18:57;;;;;;;15.25;9.88;;;;;;;;;;5012305;28;20048;-90
2022/12/12 14:21:38;;;;;;;20.40;9.88;;;;;;;;;;4996262;28;20056;-90
2022/12/12 14:24:24;;;;;;;18.25;12.20;;;;;;;;;;4996116;28;20062;-89
2022/12/12 14:26:50;;;;;;;21.63;11.45;;;;;;;;;;5012737;28;20402;-90
2022/12/12 14:29:16;;;;;;;17.25;10.55;;;;;;;;;;5012065;28;20049;-92
2022/12/12 14:31:42;;;;;;;18.23;11.57;;;;;;;;;;5012072;28;20054;-91
2022/12/12 14:34:17;;;;;;;16.92;11.23;;;;;;;;;;4996360;28;20423;-91
2022/12/12 14:36:50;;;;;;;18.77;12.40;;;;;;;;;;4996029;28;20057;-90
2022/12/12 14:39:32;;;;;;;21.53;12.63;;;;;;;;;;4995498;28;20050;-90
2022/12/12 14:41:58;;;;;;;17.95;10.73;;;;;;;;;;4996106;28;20296;-89
2022/12/12 14:44:26;;;;;;;19.15;11.48;;;;;;;;;;4978909;28;20487;-89
2022/12/12 14:46:52;;;;;;;18.73;10.98;;;;;;;;;;5012534;28;20104;-90